Time;durP1;ratioP1;P1;durP2;ratioP2;P2;SDS_P1;SDS_P2;PMS_P1;PMS_P2;Temp;Humidity;BMP_temperature;BMP_pressure;BME280_temperature;BME280_humidity;BME280_pressure;Samples;Min_cycle;Max_cycle;Signal;HPM_P1;HPM_P2
2023/04/23 00:00:35;;;;;;;7.37;6.67;;;;;;;11.69;nan;96329.84;4958799;28;20220;-67
2023/04/23 00:03:08;;;;;;;6.80;6.30;;;;;;;11.78;nan;96323.25;4898314;28;20210;-65
2023/04/23 00:05:40;;;;;;;6.80;6.20;;;;;;;11.87;nan;96329.94;4947689;28;20398;-67
2023/04/23 00:08:10;;;;;;;5.90;5.40;;;;;;;11.93;nan;96325.63;4949643;28;20212;-67
2023/04/23 00:10:38;;;;;;;6.03;5.53;;;;;;;11.93;nan;96325.63;4950812;28;20229;-66
2023/04/23 00:13:06;;;;;;;5.60;5.20;;;;;;;12.00;nan;96325.59;4954917;28;20209;-66
2023/04/23 00:15:34;;;;;;;7.33;6.73;;;;;;;11.94;nan;96323.78;4952937;28;20652;-66
2023/04/23 00:18:02;;;;;;;7.63;7.03;;;;;;;11.99;nan;96324.75;4896625;28;21062;-67
2023/04/23 00:20:30;;;;;;;7.80;7.10;;;;;;;12.00;nan;96322.94;4954673;28;20198;-66
2023/04/23 00:22:59;;;;;;;8.07;7.37;;;;;;;11.91;nan;96311.75;4947529;28;20210;-66
2023/04/23 00:25:27;;;;;;;7.23;6.60;;;;;;;11.92;nan;96308.06;4954736;28;20202;-67
2023/04/23 00:27:55;;;;;;;7.80;7.07;;;;;;;11.95;nan;96305.00;4954306;28;20755;-67
2023/04/23 00:30:22;;;;;;;6.87;6.43;;;;;;;11.93;nan;96306.22;4952390;28;21332;-68
2023/04/23 00:32:50;;;;;;;6.80;6.20;;;;;;;11.94;nan;96311.31;4943000;28;20212;-66
2023/04/23 00:35:19;;;;;;;5.97;5.50;;;;;;;11.92;nan;96312.56;4919270;28;20288;-67
2023/04/23 00:37:47;;;;;;;5.50;5.13;;;;;;;11.87;nan;96300.75;4952885;28;20999;-67
2023/04/23 00:40:16;;;;;;;4.80;4.40;;;;;;;11.85;nan;96305.44;4954998;28;20340;-66
2023/04/23 00:42:45;;;;;;;5.47;5.00;;;;;;;11.81;nan;96311.41;4955542;28;20686;-66
2023/04/23 00:45:12;;;;;;;5.30;4.90;;;;;;;11.74;nan;96316.75;4952288;28;20492;-66
2023/04/23 00:47:40;;;;;;;5.77;5.37;;;;;;;11.75;nan;96312.28;4950640;28;20229;-66
2023/04/23 00:50:09;;;;;;;5.93;5.40;;;;;;;11.70;nan;96296.97;4903900;28;20735;-67
2023/04/23 00:52:38;;;;;;;5.93;5.47;;;;;;;11.69;nan;96292.69;4957335;28;20216;-66
2023/04/23 00:55:07;;;;;;;5.47;5.13;;;;;;;11.65;nan;96283.53;4955898;28;21112;-66
2023/04/23 00:57:36;;;;;;;5.87;5.20;;;;;;;11.60;nan;96291.31;4962373;28;20241;-66
2023/04/23 01:00:06;;;;;;;6.33;5.63;;;;;;;11.55;nan;96294.59;4955674;28;20515;-67
2023/04/23 01:02:35;;;;;;;5.53;5.13;;;;;;;11.51;nan;96296.06;4959080;28;20359;-65
2023/04/23 01:05:05;;;;;;;5.57;5.17;;;;;;;11.49;nan;96292.81;4905456;28;20261;-66
2023/04/23 01:07:34;;;;;;;6.03;5.40;;;;;;;11.45;nan;96297.72;4955573;28;20241;-66
2023/04/23 01:10:02;;;;;;;10.93;5.70;;;;;;;11.44;nan;96293.44;4957302;28;20206;-66
2023/04/23 01:12:31;;;;;;;7.67;5.47;;;;;;;11.40;nan;96290.41;4953425;28;20220;-65
2023/04/23 01:15:00;;;;;;;5.33;4.90;;;;;;;11.40;nan;96284.28;4958679;28;20581;-66
2023/04/23 01:17:28;;;;;;;5.90;5.40;;;;;;;11.35;nan;96287.53;4951597;28;20241;-66
2023/04/23 01:19:56;;;;;;;5.33;5.03;;;;;;;11.29;nan;96285.72;4904750;28;20741;-66
2023/04/23 01:22:26;;;;;;;5.63;5.17;;;;;;;11.32;nan;96284.50;4955007;28;20378;-66
2023/04/23 01:24:53;;;;;;;5.80;5.30;;;;;;;11.35;nan;96286.75;4952719;28;20209;-67
2023/04/23 01:27:23;;;;;;;4.93;4.63;;;;;;;11.34;nan;96293.06;4946747;28;20737;-66
2023/04/23 01:29:52;;;;;;;5.93;5.30;;;;;;;11.38;nan;96291.63;4957024;28;21119;-66
2023/04/23 01:32:20;;;;;;;5.77;5.37;;;;;;;11.37;nan;96290.00;4936596;28;21532;-66
2023/04/23 01:34:48;;;;;;;5.77;5.37;;;;;;;11.44;nan;96290.78;4893032;28;20746;-66
2023/04/23 01:37:16;;;;;;;5.83;5.43;;;;;;;11.43;nan;96291.81;4949896;28;20624;-66
2023/04/23 01:39:45;;;;;;;5.83;5.30;;;;;;;11.46;nan;96304.63;4955166;28;20690;-66
2023/04/23 01:42:13;;;;;;;5.73;5.33;;;;;;;11.44;nan;96301.38;4954841;28;20202;-66
2023/04/23 01:44:41;;;;;;;5.73;5.40;;;;;;;11.35;nan;96295.50;4952695;28;20206;-66
2023/04/23 01:47:10;;;;;;;6.27;5.77;;;;;;;11.40;nan;96301.00;4952034;28;20237;-66
2023/04/23 01:49:38;;;;;;;5.83;5.43;;;;;;;11.42;nan;96312.22;4900804;28;20924;-64
2023/04/23 01:52:05;;;;;;;6.80;6.17;;;;;;;11.39;nan;96304.69;4953358;28;20659;-66
2023/04/23 01:54:33;;;;;;;6.03;5.53;;;;;;;11.41;nan;96307.13;4952345;28;20466;-66
2023/04/23 01:57:02;;;;;;;6.77;6.17;;;;;;;11.33;nan;96307.34;4953854;28;20226;-67
2023/04/23 01:59:30;;;;;;;6.40;5.93;;;;;;;11.24;nan;96312.06;4952562;28;20460;-65
2023/04/23 02:01:58;;;;;;;6.30;5.83;;;;;;;11.22;nan;96312.31;4948656;28;20559;-64
2023/04/23 02:04:26;;;;;;;5.73;5.33;;;;;;;11.20;nan;96313.53;4946212;28;20202;-66
2023/04/23 02:06:54;;;;;;;6.10;5.60;;;;;;;11.12;nan;96312.72;4905115;28;20280;-66
2023/04/23 02:09:22;;;;;;;5.70;5.37;;;;;;;11.13;nan;96319.66;4950296;28;20218;-67
2023/04/23 02:11:50;;;;;;;6.80;6.20;;;;;;;11.13;nan;96317.00;4953868;28;20202;-65
2023/04/23 02:14:19;;;;;;;6.80;6.30;;;;;;;11.17;nan;96312.09;4946758;28;20858;-66
2023/04/23 02:16:47;;;;;;;6.77;6.07;;;;;;;11.20;nan;96327.59;4951890;28;20229;-65
2023/04/23 02:19:15;;;;;;;6.23;5.63;;;;;;;11.22;nan;96320.25;4949701;28;20210;-66
2023/04/23 02:21:44;;;;;;;6.60;6.00;;;;;;;11.26;nan;96325.94;4890257;28;20563;-66
2023/04/23 02:24:11;;;;;;;6.40;5.80;;;;;;;11.26;nan;96321.47;4953474;28;20217;-67
2023/04/23 02:26:39;;;;;;;7.37;6.87;;;;;;;11.30;nan;96327.13;4952175;28;20445;-65
2023/04/23 02:29:07;;;;;;;6.57;6.00;;;;;;;11.29;nan;96318.38;4955606;28;20198;-66
2023/04/23 02:31:36;;;;;;;7.27;6.70;;;;;;;11.24;nan;96312.91;4954426;28;20329;-66
2023/04/23 02:34:04;;;;;;;6.60;6.20;;;;;;;11.24;nan;96320.84;4952351;28;20201;-64
2023/04/23 02:36:32;;;;;;;6.37;5.87;;;;;;;11.24;nan;96306.78;4895045;28;21402;-65
2023/04/23 02:39:00;;;;;;;6.67;6.07;;;;;;;11.19;nan;96311.88;4953210;28;20310;-66
2023/04/23 02:41:27;;;;;;;6.03;5.63;;;;;;;11.06;nan;96295.00;4948571;28;20236;-66
2023/04/23 02:43:55;;;;;;;6.90;6.40;;;;;;;11.09;nan;96313.16;4956655;28;20670;-64
2023/04/23 02:46:23;;;;;;;7.50;6.40;;;;;;;11.09;nan;96313.16;4950291;28;20264;-67
2023/04/23 02:48:52;;;;;;;7.00;5.77;;;;;;;11.09;nan;96305.19;4952805;28;20244;-66
2023/04/23 02:51:20;;;;;;;6.83;6.33;;;;;;;11.08;nan;96318.66;4952199;28;20626;-67
2023/04/23 02:53:47;;;;;;;6.57;6.07;;;;;;;11.05;nan;96322.53;4892479;28;20206;-65
2023/04/23 02:56:15;;;;;;;6.80;6.17;;;;;;;11.06;nan;96320.69;4951611;28;20777;-66
2023/04/23 02:58:44;;;;;;;6.83;6.33;;;;;;;11.02;nan;96324.78;4954391;28;20209;-66
2023/04/23 03:01:11;;;;;;;6.83;6.27;;;;;;;11.08;nan;96332.72;4950358;28;20213;-66
2023/04/23 03:03:39;;;;;;;5.70;5.30;;;;;;;11.04;nan;96328.88;4951088;28;20311;-67
2023/04/23 03:06:09;;;;;;;5.93;5.53;;;;;;;11.02;nan;96333.56;4952604;28;20681;-65
2023/04/23 03:08:37;;;;;;;5.67;5.27;;;;;;;11.08;nan;96324.78;4898775;28;23264;-65
2023/04/23 03:11:05;;;;;;;5.33;5.03;;;;;;;11.14;nan;96329.25;4954907;28;20213;-65
2023/04/23 03:13:33;;;;;;;5.97;5.03;;;;;;;11.22;nan;96330.03;4948769;28;20789;-67
2023/04/23 03:16:00;;;;;;;5.23;4.83;;;;;;;11.24;nan;96335.94;4951137;28;20252;-67
2023/04/23 03:18:28;;;;;;;4.90;4.50;;;;;;;11.21;nan;96339.84;4944471;28;20205;-66
2023/04/23 03:20:56;;;;;;;5.50;5.10;;;;;;;11.20;nan;96335.56;4956474;28;20268;-67
2023/04/23 03:23:25;;;;;;;5.30;4.90;;;;;;;11.20;nan;96338.22;4905323;28;20625;-66
2023/04/23 03:25:53;;;;;;;5.43;4.97;;;;;;;11.21;nan;96334.53;4954067;28;20209;-67
2023/04/23 03:28:21;;;;;;;5.80;5.23;;;;;;;11.20;nan;96335.56;4955601;28;20237;-67
2023/04/23 03:30:49;;;;;;;4.40;4.10;;;;;;;11.24;nan;96338.59;4948551;28;20206;-67
2023/04/23 03:33:16;;;;;;;6.13;4.60;;;;;;;11.26;nan;96336.53;4950390;28;20201;-66
2023/04/23 03:35:44;;;;;;;5.80;4.63;;;;;;;11.21;nan;96329.22;4950688;28;20201;-68
2023/04/23 03:38:12;;;;;;;4.57;4.23;;;;;;;11.22;nan;96328.22;4952539;28;20295;-67
2023/04/23 03:40:41;;;;;;;5.97;4.57;;;;;;;11.31;nan;96336.72;4901403;28;20216;-68
2023/04/23 03:43:09;;;;;;;4.80;4.13;;;;;;;11.32;nan;96332.25;4953753;28;20962;-67
2023/04/23 03:45:37;;;;;;;4.60;4.30;;;;;;;11.33;nan;96331.22;4949880;28;20334;-67
2023/04/23 03:48:05;;;;;;;4.57;4.17;;;;;;;11.35;nan;96332.63;4951791;28;20245;-67
2023/04/23 03:50:37;;;;;;;3.80;3.60;;;;;;;11.42;nan;96340.56;4952555;28;20514;-67
2023/04/23 03:53:05;;;;;;;4.67;4.27;;;;;;;11.44;nan;96334.03;4954049;28;20729;-67
2023/04/23 03:55:33;;;;;;;4.33;4.03;;;;;;;11.48;nan;96334.41;4901023;28;20210;-67
2023/04/23 03:58:02;;;;;;;5.47;3.90;;;;;;;11.50;nan;96332.38;4956019;28;20515;-67
2023/04/23 04:00:30;;;;;;;4.30;4.00;;;;;;;11.55;nan;96340.53;4930605;28;20206;-67
2023/04/23 04:02:59;;;;;;;5.33;4.37;;;;;;;11.55;nan;96340.53;4951615;28;20215;-66
2023/04/23 04:05:27;;;;;;;4.30;4.00;;;;;;;11.57;nan;96346.44;4942649;28;20265;-68
2023/04/23 04:07:55;;;;;;;4.60;4.20;;;;;;;11.60;nan;96347.03;4941263;28;20652;-68
2023/04/23 04:10:22;;;;;;;4.90;4.03;;;;;;;11.53;nan;96331.16;4902005;28;26678;-68
2023/04/23 04:12:50;;;;;;;4.37;4.07;;;;;;;11.57;nan;96345.59;4928725;28;20217;-68
2023/04/23 04:15:19;;;;;;;4.77;4.47;;;;;;;11.54;nan;96346.84;4950437;28;20911;-68
2023/04/23 04:17:47;;;;;;;4.60;4.20;;;;;;;11.53;nan;96347.84;4947433;28;20230;-70
2023/04/23 04:20:15;;;;;;;4.67;4.20;;;;;;;11.57;nan;96353.56;4892439;28;20226;-67
2023/04/23 04:22:43;;;;;;;4.90;3.80;;;;;;;11.57;nan;96350.91;4946711;28;20217;-68
2023/04/23 04:25:11;;;;;;;4.37;4.00;;;;;;;11.56;nan;96352.78;4934596;28;20772;-67
2023/04/23 04:27:40;;;;;;;4.20;3.90;;;;;;;11.57;nan;96354.41;4905891;28;20225;-67
2023/04/23 04:30:09;;;;;;;6.47;4.13;;;;;;;11.56;nan;96355.44;4938758;28;20209;-68
2023/04/23 04:32:39;;;;;;;4.80;4.40;;;;;;;11.61;nan;96359.28;4954676;28;20202;-67
2023/04/23 04:35:08;;;;;;;4.27;3.90;;;;;;;11.61;nan;96348.66;4959181;28;20648;-66
2023/04/23 04:37:36;;;;;;;5.40;5.00;;;;;;;11.70;nan;96358.81;4935356;28;20246;-68
2023/04/23 04:40:06;;;;;;;5.60;5.20;;;;;;;11.69;nan;96353.72;4953581;28;20319;-67
2023/04/23 04:42:33;;;;;;;5.37;4.97;;;;;;;11.64;nan;96358.84;4904447;28;20236;-66
2023/04/23 04:45:01;;;;;;;4.63;4.33;;;;;;;11.56;nan;96360.72;4956674;28;20213;-67
2023/04/23 04:47:30;;;;;;;4.83;4.43;;;;;;;11.51;nan;96359.72;4919949;28;20323;-67
2023/04/23 04:49:59;;;;;;;5.03;4.70;;;;;;;11.53;nan;96363.78;4956020;28;20593;-68
2023/04/23 04:52:27;;;;;;;4.63;4.33;;;;;;;11.54;nan;96361.94;4898090;28;20210;-67
2023/04/23 04:54:55;;;;;;;4.87;4.43;;;;;;;11.52;nan;96359.50;4956440;28;20969;-67
2023/04/23 04:57:23;;;;;;;4.50;4.10;;;;;;;11.58;nan;96365.81;4904736;28;20300;-66
2023/04/23 04:59:50;;;;;;;3.90;3.60;;;;;;;11.57;nan;96361.53;4960041;28;21079;-69
2023/04/23 05:02:18;;;;;;;4.13;3.83;;;;;;;11.63;nan;96360.69;4949006;28;20210;-67
2023/04/23 05:04:46;;;;;;;5.47;4.80;;;;;;;11.69;nan;96357.19;4946172;28;20221;-67
2023/04/23 05:07:16;;;;;;;5.53;4.50;;;;;;;11.76;nan;96370.44;4930550;28;20789;-67
2023/04/23 05:09:43;;;;;;;4.47;4.17;;;;;;;11.78;nan;96368.38;4956342;28;20238;-66
2023/04/23 05:12:12;;;;;;;5.27;4.77;;;;;;;11.85;nan;96374.47;4898438;28;21506;-65
2023/04/23 05:14:39;;;;;;;4.50;4.20;;;;;;;11.91;nan;96372.81;4956249;28;20202;-68
2023/04/23 05:17:07;;;;;;;5.07;4.60;;;;;;;11.93;nan;96369.91;4952655;28;20664;-66
2023/04/23 05:19:35;;;;;;;5.27;4.77;;;;;;;11.96;nan;96380.94;4941297;28;20240;-66
2023/04/23 05:22:03;;;;;;;4.17;3.87;;;;;;;11.95;nan;96387.28;4946388;28;20246;-66
2023/04/23 05:24:32;;;;;;;4.93;4.57;;;;;;;11.94;nan;96384.84;4953794;28;20201;-66
2023/04/23 05:27:00;;;;;;;4.60;4.30;;;;;;;11.93;nan;96380.53;4879747;28;20739;-65
2023/04/23 05:29:28;;;;;;;4.87;4.33;;;;;;;12.04;nan;96384.41;4948333;28;20230;-66
2023/04/23 05:31:56;;;;;;;4.80;4.50;;;;;;;12.11;nan;96393.97;4954110;28;20224;-66
2023/04/23 05:34:24;;;;;;;5.40;4.90;;;;;;;12.20;nan;96396.38;4954354;28;20468;-66
2023/04/23 05:36:51;;;;;;;3.87;3.63;;;;;;;12.26;nan;96396.34;4951709;28;20329;-67
2023/04/23 05:39:19;;;;;;;4.13;3.83;;;;;;;12.28;nan;96402.25;4946610;28;20925;-66
2023/04/23 05:41:48;;;;;;;4.53;4.10;;;;;;;12.34;nan;96408.56;4950302;28;20836;-66
2023/04/23 05:44:16;;;;;;;4.50;4.20;;;;;;;12.36;nan;96410.97;4886296;28;20782;-65
2023/04/23 05:46:44;;;;;;;3.77;3.50;;;;;;;12.36;nan;96414.47;4927793;28;20544;-66
2023/04/23 05:49:12;;;;;;;4.27;3.87;;;;;;;12.35;nan;96412.00;4955516;28;20293;-66
2023/04/23 05:51:40;;;;;;;6.73;3.77;;;;;;;12.36;nan;96413.63;4925307;28;20210;-67
2023/04/23 05:54:07;;;;;;;3.60;3.40;;;;;;;12.44;nan;96430.13;4952511;28;20788;-66
2023/04/23 05:56:35;;;;;;;4.20;3.80;;;;;;;12.54;nan;96424.34;4955532;28;20720;-66
2023/04/23 05:59:05;;;;;;;4.03;3.63;;;;;;;12.49;nan;96431.34;4907945;28;21504;-65
2023/04/23 06:01:33;;;;;;;3.60;3.27;;;;;;;12.55;nan;96436.63;4955084;28;20462;-65
2023/04/23 06:04:00;;;;;;;3.53;3.33;;;;;;;12.63;nan;96440.84;4952165;28;20209;-66
2023/04/23 06:06:28;;;;;;;4.13;3.83;;;;;;;12.50;nan;96431.13;4923316;28;20233;-65
2023/04/23 06:08:56;;;;;;;4.93;3.37;;;;;;;12.48;nan;96443.00;4943437;28;20214;-67
2023/04/23 06:11:24;;;;;;;3.97;3.67;;;;;;;12.53;nan;96451.97;4954722;28;20214;-66
2023/04/23 06:13:52;;;;;;;3.87;3.57;;;;;;;12.45;nan;96438.91;4930631;28;20194;-66
2023/04/23 06:16:22;;;;;;;3.10;2.67;;;;;;;12.42;nan;96439.34;4926734;28;20452;-65
2023/04/23 06:18:50;;;;;;;2.77;2.57;;;;;;;12.34;nan;96442.25;4952723;28;20260;-66
2023/04/23 06:21:18;;;;;;;2.87;2.63;;;;;;;12.19;nan;96445.19;4930020;28;21626;-66
2023/04/23 06:23:46;;;;;;;3.17;2.83;;;;;;;12.17;nan;96440.09;4955016;28;20210;-66
2023/04/23 06:26:14;;;;;;;2.73;2.53;;;;;;;12.11;nan;96439.09;4953904;28;20450;-66
2023/04/23 06:28:42;;;;;;;3.07;2.70;;;;;;;12.20;nan;96444.16;4956312;28;20674;-66
2023/04/23 06:31:10;;;;;;;3.93;2.80;;;;;;;12.13;nan;96444.22;4904887;28;20229;-67
2023/04/23 06:33:39;;;;;;;2.87;2.67;;;;;;;12.18;nan;96435.59;4950496;28;20205;-66
2023/04/23 06:36:09;;;;;;;3.23;2.87;;;;;;;12.24;nan;96440.88;4947387;28;20613;-66
2023/04/23 06:38:37;;;;;;;3.60;3.40;;;;;;;12.33;nan;96446.78;4924236;28;20210;-66
2023/04/23 06:41:05;;;;;;;4.03;3.53;;;;;;;12.24;nan;96437.41;4946108;28;20202;-68
2023/04/23 06:43:33;;;;;;;3.30;3.00;;;;;;;12.19;nan;96446.03;4930621;28;20323;-68
2023/04/23 06:46:01;;;;;;;6.13;4.33;;;;;;;12.21;nan;96438.66;4902657;28;20241;-68
2023/04/23 06:48:31;;;;;;;5.37;4.00;;;;;;;12.18;nan;96444.41;4924912;28;20201;-67
2023/04/23 06:51:00;;;;;;;5.77;3.73;;;;;;;12.25;nan;96441.69;4950612;28;20895;-67
2023/04/23 06:53:29;;;;;;;3.57;3.00;;;;;;;12.33;nan;96452.06;4924036;28;20721;-66
2023/04/23 06:55:57;;;;;;;4.10;3.90;;;;;;;12.25;nan;96447.00;4949641;28;20217;-66
2023/04/23 06:58:30;;;;;;;4.33;4.10;;;;;;;12.29;nan;96441.06;4950376;28;20429;-65
2023/04/23 07:00:59;;;;;;;5.50;3.43;;;;;;;12.44;nan;96447.91;4900607;28;20217;-66
2023/04/23 07:03:27;;;;;;;4.90;3.60;;;;;;;12.56;nan;96448.03;4927984;28;20219;-66
2023/04/23 07:05:55;;;;;;;3.67;3.47;;;;;;;12.59;nan;96437.81;4955143;28;20228;-67
2023/04/23 07:08:24;;;;;;;3.80;3.50;;;;;;;12.65;nan;96443.28;4949599;28;20205;-66
2023/04/23 07:10:53;;;;;;;4.30;4.00;;;;;;;12.63;nan;96445.34;4958387;28;20226;-67
2023/04/23 07:13:20;;;;;;;7.97;7.10;;;;;;;12.64;nan;96441.66;4942536;28;20884;-66
2023/04/23 07:15:48;;;;;;;5.90;5.37;;;;;;;12.67;nan;96441.22;4902149;28;20635;-66
2023/04/23 07:18:16;;;;;;;3.83;3.53;;;;;;;12.71;nan;96440.59;4949996;28;20594;-66
2023/04/23 07:20:44;;;;;;;3.43;3.17;;;;;;;12.65;nan;96444.09;4933564;28;20216;-66
2023/04/23 07:23:12;;;;;;;3.50;3.20;;;;;;;12.55;nan;96443.75;4949564;28;20666;-66
2023/04/23 07:25:41;;;;;;;3.60;3.30;;;;;;;12.66;nan;96442.25;4953816;28;20469;-66
2023/04/23 07:28:09;;;;;;;4.00;3.60;;;;;;;12.52;nan;96450.34;4954385;28;20213;-68
2023/04/23 07:30:36;;;;;;;4.30;3.90;;;;;;;12.62;nan;96455.16;4902614;28;21650;-66
2023/04/23 07:33:04;;;;;;;4.17;3.73;;;;;;;12.66;nan;96443.06;4953698;28;20214;-67
2023/04/23 07:35:32;;;;;;;4.00;3.60;;;;;;;12.68;nan;96453.47;4932223;28;20681;-67
2023/04/23 07:38:00;;;;;;;4.50;4.00;;;;;;;12.63;nan;96445.34;4953657;28;20221;-68
2023/04/23 07:40:28;;;;;;;4.10;3.70;;;;;;;12.60;nan;96446.56;4949915;28;20668;-67
2023/04/23 07:42:58;;;;;;;3.20;3.00;;;;;;;12.50;nan;96443.59;4956141;28;20212;-66
2023/04/23 07:45:26;;;;;;;3.60;3.37;;;;;;;12.44;nan;96446.06;4898840;28;20563;-67
2023/04/23 07:47:53;;;;;;;3.33;3.13;;;;;;;12.56;nan;96451.53;4956254;28;20229;-67
2023/04/23 07:50:21;;;;;;;3.17;2.97;;;;;;;12.61;nan;96442.09;4952085;28;20534;-68
2023/04/23 07:52:49;;;;;;;3.73;3.53;;;;;;;12.70;nan;96456.75;4932038;28;20361;-66
2023/04/23 07:55:19;;;;;;;3.37;2.90;;;;;;;12.64;nan;96457.59;4950168;28;20219;-67
2023/04/23 07:57:46;;;;;;;2.80;2.70;;;;;;;12.63;nan;96462.09;4956085;28;20711;-66
2023/04/23 08:00:17;;;;;;;2.73;2.53;;;;;;;12.56;nan;96453.34;4924247;28;20775;-67
2023/04/23 08:02:45;;;;;;;4.00;2.77;;;;;;;12.64;nan;96462.91;4936407;28;20221;-66
2023/04/23 08:05:13;;;;;;;3.30;3.10;;;;;;;12.65;nan;96465.34;4951494;28;20571;-67
2023/04/23 08:07:40;;;;;;;3.40;3.13;;;;;;;12.70;nan;96460.22;4932147;28;21004;-67
2023/04/23 08:10:08;;;;;;;2.87;2.67;;;;;;;12.65;nan;96459.22;4956388;28;20901;-66
2023/04/23 08:12:36;;;;;;;3.83;2.90;;;;;;;12.63;nan;96453.31;4943346;28;20483;-67
2023/04/23 08:15:05;;;;;;;3.47;2.90;;;;;;;12.66;nan;96464.31;4946250;28;20505;-66
2023/04/23 08:17:34;;;;;;;3.33;2.80;;;;;;;12.69;nan;96450.63;4880472;28;20233;-67
2023/04/23 08:20:03;;;;;;;2.93;2.70;;;;;;;12.66;nan;96440.41;4951171;28;20217;-66
2023/04/23 08:22:31;;;;;;;5.37;2.87;;;;;;;12.67;nan;96436.72;4922158;28;20607;-68
2023/04/23 08:24:58;;;;;;;4.13;3.60;;;;;;;12.49;nan;96448.06;4955772;28;20206;-66
2023/04/23 08:27:26;;;;;;;4.23;3.30;;;;;;;12.35;nan;96438.56;4949373;28;20733;-67
2023/04/23 08:29:54;;;;;;;3.27;3.07;;;;;;;12.26;nan;96440.66;4939317;28;20226;-67
2023/04/23 08:32:22;;;;;;;3.80;3.43;;;;;;;12.32;nan;96453.09;4886954;28;20673;-66
2023/04/23 08:34:52;;;;;;;3.80;3.50;;;;;;;12.38;nan;96444.28;4951337;28;20210;-67
2023/04/23 08:37:19;;;;;;;3.30;3.10;;;;;;;12.39;nan;96447.72;4951973;28;20534;-67
2023/04/23 08:39:57;;;;;;;4.33;3.93;;;;;;;12.36;nan;96456.13;4931903;28;20209;-68
2023/04/23 08:42:31;;;;;;;3.17;2.77;;;;;;;12.23;nan;96459.66;4941289;28;20311;-67
2023/04/23 08:44:59;;;;;;;2.90;2.43;;;;;;;12.15;nan;96450.13;4948482;28;20214;-67
2023/04/23 08:47:28;;;;;;;3.20;3.00;;;;;;;12.22;nan;96436.78;4897753;28;20718;-67
2023/04/23 08:49:59;;;;;;;2.60;2.40;;;;;;;12.30;nan;96447.16;4958095;28;20402;-67
2023/04/23 08:52:30;;;;;;;2.50;2.30;;;;;;;12.28;nan;96436.78;4952831;28;20233;-66
2023/04/23 08:55:00;;;;;;;3.50;3.00;;;;;;;12.35;nan;96441.22;4932074;28;20220;-67
2023/04/23 08:57:28;;;;;;;2.77;2.60;;;;;;;12.35;nan;96442.06;4949372;28;20238;-67
2023/04/23 08:59:56;;;;;;;3.27;2.97;;;;;;;12.29;nan;96445.53;4950635;28;20214;-67
2023/04/23 09:02:24;;;;;;;3.17;2.97;;;;;;;12.35;nan;96443.88;4896920;28;21027;-67
2023/04/23 09:04:53;;;;;;;3.10;2.87;;;;;;;12.34;nan;96443.09;4950212;28;20249;-67
2023/04/23 09:07:24;;;;;;;2.43;2.33;;;;;;;12.13;nan;96446.88;4949659;28;20835;-67
2023/04/23 09:09:52;;;;;;;3.77;2.70;;;;;;;12.07;nan;96447.69;4930235;28;20228;-68
2023/04/23 09:12:20;;;;;;;2.50;2.30;;;;;;;12.04;nan;96440.97;4932449;28;20869;-66
2023/04/23 09:14:50;;;;;;;2.97;2.30;;;;;;;11.96;nan;96426.06;4952674;28;20222;-66
2023/04/23 09:17:18;;;;;;;2.43;2.23;;;;;;;11.99;nan;96440.78;4959718;28;20238;-64
2023/04/23 09:19:46;;;;;;;2.33;2.23;;;;;;;11.94;nan;96443.25;4915033;28;20713;-67
2023/04/23 09:22:13;;;;;;;2.53;2.43;;;;;;;11.92;nan;96448.75;4951370;28;20837;-65
2023/04/23 09:24:43;;;;;;;2.87;2.67;;;;;;;11.95;nan;96436.91;4942709;28;20214;-64
2023/04/23 09:27:11;;;;;;;3.20;3.00;;;;;;;12.03;nan;96428.72;4951429;28;20229;-64
2023/04/23 09:29:38;;;;;;;2.27;2.17;;;;;;;12.15;nan;96431.53;4955053;28;20213;-65
2023/04/23 09:32:08;;;;;;;2.30;2.10;;;;;;;12.20;nan;96426.41;4957382;28;20226;-66
2023/04/23 09:34:36;;;;;;;2.70;2.60;;;;;;;12.34;nan;96405.91;4915338;28;20221;-67
2023/04/23 09:37:06;;;;;;;2.97;2.53;;;;;;;12.36;nan;96401.19;4955927;28;20591;-66
2023/04/23 09:39:34;;;;;;;2.53;2.33;;;;;;;12.61;nan;96411.00;4955054;28;20210;-67
2023/04/23 09:42:07;;;;;;;2.47;2.37;;;;;;;12.93;nan;96420.78;4915105;28;20213;-66
2023/04/23 09:44:35;;;;;;;2.57;2.47;;;;;;;13.12;nan;96408.34;4959118;28;20240;-66
2023/04/23 09:47:08;;;;;;;2.07;1.97;;;;;;;13.12;nan;96411.00;4956326;28;20221;-66
2023/04/23 09:49:45;;;;;;;2.30;2.10;;;;;;;13.10;nan;96400.56;4915451;28;20213;-65
2023/04/23 09:52:13;;;;;;;2.10;2.00;;;;;;;12.96;nan;96396.44;4929264;28;20229;-66
2023/04/23 09:54:40;;;;;;;2.93;2.73;;;;;;;12.96;nan;96401.75;4956670;28;20213;-67
2023/04/23 09:57:11;;;;;;;2.53;2.33;;;;;;;13.01;nan;96409.88;4924734;28;20529;-67
2023/04/23 09:59:38;;;;;;;2.00;1.90;;;;;;;12.98;nan;96408.47;4951902;28;20213;-67
2023/04/23 10:02:15;;;;;;;2.43;2.33;;;;;;;12.93;nan;96416.28;4954824;28;20205;-65
2023/04/23 10:04:43;;;;;;;2.50;2.40;;;;;;;12.82;nan;96406.34;4917347;28;20222;-69
2023/04/23 10:07:12;;;;;;;2.77;2.57;;;;;;;12.90;nan;96415.91;4950643;28;21152;-66
2023/04/23 10:09:43;;;;;;;2.57;2.47;;;;;;;12.90;nan;96414.06;4922960;28;20353;-66
2023/04/23 10:12:13;;;;;;;4.70;2.67;;;;;;;12.60;nan;96417.34;4928178;28;20234;-65
2023/04/23 10:14:44;;;;;;;2.97;2.80;;;;;;;12.76;nan;96413.34;4947610;28;20213;-64
2023/04/23 10:17:12;;;;;;;3.13;2.80;;;;;;;12.72;nan;96426.28;4954364;28;20230;-65
2023/04/23 10:19:41;;;;;;;3.03;2.83;;;;;;;12.60;nan;96420.00;4958103;28;20205;-65
2023/04/23 10:22:10;;;;;;;4.43;4.07;;;;;;;12.59;nan;96419.22;4913410;28;20732;-65
2023/04/23 10:24:46;;;;;;;3.80;3.10;;;;;;;12.59;nan;96423.69;4952998;28;20209;-65
2023/04/23 10:27:18;;;;;;;3.57;3.27;;;;;;;12.70;nan;96428.34;4936078;28;20295;-65
2023/04/23 10:29:49;;;;;;;3.30;3.10;;;;;;;12.77;nan;96422.94;4953277;28;20220;-66
2023/04/23 10:32:18;;;;;;;2.97;2.77;;;;;;;12.91;nan;96410.38;4943648;28;20876;-65
2023/04/23 10:34:46;;;;;;;3.43;3.23;;;;;;;12.77;nan;96406.19;4955828;28;20670;-66
2023/04/23 10:37:15;;;;;;;3.07;2.87;;;;;;;12.57;nan;96407.97;4897982;28;20764;-65
2023/04/23 10:39:44;;;;;;;3.30;3.00;;;;;;;12.42;nan;96399.50;4954289;28;20749;-64
2023/04/23 10:42:13;;;;;;;3.00;2.80;;;;;;;12.36;nan;96405.66;4936600;28;20305;-66
2023/04/23 10:44:43;;;;;;;2.87;2.63;;;;;;;12.31;nan;96406.28;4957412;28;20221;-66
2023/04/23 10:47:25;;;;;;;2.90;2.80;;;;;;;12.40;nan;96398.88;4951529;28;20435;-65
2023/04/23 10:49:53;;;;;;;3.13;2.93;;;;;;;12.51;nan;96400.06;4950283;28;20766;-65
2023/04/23 10:52:22;;;;;;;3.43;3.23;;;;;;;12.52;nan;96401.69;4918356;28;22326;-66
2023/04/23 10:54:58;;;;;;;3.70;3.50;;;;;;;12.61;nan;96408.34;4929576;28;20217;-66
2023/04/23 10:57:26;;;;;;;3.37;3.17;;;;;;;12.76;nan;96405.38;4956532;28;20246;-66
2023/04/23 10:59:57;;;;;;;3.30;3.10;;;;;;;12.79;nan;96402.28;4959477;28;20279;-67
2023/04/23 11:02:25;;;;;;;3.90;3.60;;;;;;;12.96;nan;96402.53;4957246;28;20240;-68
2023/04/23 11:04:55;;;;;;;3.90;3.70;;;;;;;13.06;nan;96395.91;4950913;28;20206;-68
2023/04/23 11:07:26;;;;;;;4.00;3.67;;;;;;;13.06;nan;96395.91;4885260;28;20717;-67
2023/04/23 11:09:56;;;;;;;3.80;3.50;;;;;;;13.12;nan;96398.50;4955703;28;20217;-69
2023/04/23 11:12:33;;;;;;;3.73;3.30;;;;;;;13.15;nan;96399.94;4958908;28;20467;-67
2023/04/23 11:15:12;;;;;;;4.03;3.80;;;;;;;13.21;nan;96396.38;4960803;28;20216;-67
2023/04/23 11:17:59;;;;;;;3.60;3.30;;;;;;;13.43;nan;96390.66;4954776;28;20281;-68
2023/04/23 11:20:27;;;;;;;3.50;3.30;;;;;;;13.87;nan;96382.56;4959409;28;20536;-67
2023/04/23 11:22:55;;;;;;;3.70;3.50;;;;;;;14.06;nan;96383.34;4899257;28;20480;-68
2023/04/23 11:25:23;;;;;;;2.93;2.83;;;;;;;14.15;nan;96381.19;4956869;28;20748;-68
2023/04/23 11:27:52;;;;;;;3.00;2.80;;;;;;;14.23;nan;96378.19;4926835;28;20448;-68
2023/04/23 11:30:22;;;;;;;2.20;2.10;;;;;;;14.70;nan;96374.00;4949503;28;20265;-68
2023/04/23 11:32:52;;;;;;;2.80;2.60;;;;;;;14.97;nan;96374.41;4921220;28;20662;-68
2023/04/23 11:35:21;;;;;;;3.03;2.60;;;;;;;15.19;nan;96377.31;4938982;28;20732;-67
2023/04/23 11:37:49;;;;;;;3.10;2.90;;;;;;;15.69;nan;96376.97;4953846;28;20706;-68
2023/04/23 11:40:18;;;;;;;3.73;3.43;;;;;;;16.25;nan;96371.09;4881842;28;20748;-66
2023/04/23 11:42:49;;;;;;;2.30;2.20;;;;;;;16.34;nan;96354.44;4957970;28;20738;-68
2023/04/23 11:45:18;;;;;;;2.67;2.50;;;;;;;16.64;nan;96355.97;4929312;28;21463;-68
2023/04/23 11:47:49;;;;;;;3.47;2.60;;;;;;;16.24;nan;96338.19;4953237;28;20233;-68
2023/04/23 11:50:18;;;;;;;2.67;2.47;;;;;;;15.99;nan;96344.75;4952830;28;20325;-66
2023/04/23 11:52:46;;;;;;;2.23;2.13;;;;;;;16.34;nan;96340.25;4951832;28;20242;-68
2023/04/23 11:55:15;;;;;;;3.13;2.07;;;;;;;16.63;nan;96329.50;4899952;28;20534;-65
2023/04/23 11:57:44;;;;;;;2.03;1.90;;;;;;;16.47;nan;96317.75;4959127;28;20237;-64